createdAt,value
2023-03-24T00:04:33.151Z,95193.53
2023-03-24T00:09:40.937Z,95179.13
2023-03-24T00:14:49.277Z,95180.25
2023-03-24T00:19:59.605Z,95165.84
2023-03-24T00:25:07.896Z,95172.63
2023-03-24T00:30:16.402Z,95168.13
2023-03-24T00:35:26.712Z,95164.69
2023-03-24T00:40:34.432Z,95154.06
2023-03-24T00:45:46.103Z,95132.81
2023-03-24T00:50:56.572Z,95114.97
2023-03-24T00:56:04.588Z,95107.38
2023-03-24T01:01:12.302Z,95097.16
2023-03-24T01:06:25.136Z,95090.31
2023-03-24T01:11:40.229Z,95088.78
2023-03-24T01:16:48.175Z,95083.88
2023-03-24T01:21:59.699Z,95081.22
2023-03-24T01:27:07.695Z,95062.28
2023-03-24T01:32:15.583Z,95072.91
2023-03-24T01:37:26.358Z,95059.63
2023-03-24T01:42:34.083Z,95066.50
2023-03-24T01:47:41.842Z,95039.22
2023-03-24T01:52:52.179Z,95067.28
2023-03-24T01:58:03.261Z,95055.16
2023-03-24T02:03:14.923Z,95056.28
2023-03-24T02:08:31.319Z,95065.38
2023-03-24T02:13:39.077Z,95055.16
2023-03-24T02:18:56.440Z,95053.22
2023-03-24T02:24:42.920Z,95062.28
2023-03-24T02:30:29.748Z,95046.72
2023-03-24T02:35:54.540Z,95052.06
2023-03-24T02:41:12.712Z,95053.59
2023-03-24T02:46:27.166Z,95044.50
2023-03-24T02:51:41.804Z,95035.03
2023-03-24T02:56:58.929Z,95029.72
2023-03-24T03:02:10.754Z,95031.97
2023-03-24T03:07:22.633Z,95029.34
2023-03-24T03:12:38.643Z,95022.88
2023-03-24T03:17:54.063Z,95009.66
2023-03-24T03:23:07.645Z,95000.53
2023-03-24T03:28:22.173Z,95006.22
2023-03-24T03:33:37.595Z,95005.06
2023-03-24T03:38:53.133Z,95002.03
2023-03-24T03:44:04.006Z,95003.53
2023-03-24T03:49:12.460Z,95013.00
2023-03-24T03:54:22.171Z,95008.81
2023-03-24T03:59:36.393Z,95013.72
2023-03-24T04:05:05.807Z,94996.63
2023-03-24T04:10:22.587Z,95001.16
2023-03-24T04:15:45.580Z,94990.50
2023-03-24T04:21:06.472Z,94979.91
2023-03-24T04:26:26.360Z,94985.22
2023-03-24T04:31:42.130Z,94995.13
2023-03-24T04:36:54.723Z,94999.69
2023-03-24T04:42:07.405Z,95011.47
2023-03-24T04:47:19.664Z,95012.63
2023-03-24T04:52:28.112Z,95024.75
2023-03-24T04:57:36.182Z,95048.66
2023-03-24T05:02:46.456Z,95062.28
2023-03-24T05:07:54.819Z,95071.78
2023-03-24T05:13:02.408Z,95083.94
2023-03-24T05:18:12.726Z,95105.19
2023-03-24T05:23:20.554Z,95115.09
2023-03-24T05:28:28.185Z,95111.34
2023-03-24T05:33:38.544Z,95107.16
2023-03-24T05:38:46.404Z,95103.06
2023-03-24T05:43:54.011Z,95114.44
2023-03-24T05:49:04.669Z,95122.09
2023-03-24T05:54:12.342Z,95122.13
2023-03-24T05:59:20.019Z,95114.19
2023-03-24T06:04:31.402Z,95114.22
2023-03-24T06:09:42.634Z,95105.94
2023-03-24T06:14:50.110Z,95111.56
2023-03-24T06:20:04.989Z,95114.66
2023-03-24T06:25:13.996Z,95114.25
2023-03-24T06:30:21.839Z,95105.94
2023-03-24T06:35:32.882Z,95113.53
2023-03-24T06:40:40.493Z,95115.78
2023-03-24T06:45:48.951Z,95112.78
2023-03-24T06:50:59.933Z,95112.00
2023-03-24T06:56:08.656Z,95118.44
2023-03-24T07:01:16.692Z,95122.22
2023-03-24T07:06:26.981Z,95120.69
2023-03-24T07:11:34.640Z,95143.06
2023-03-24T07:16:42.333Z,95149.88
2023-03-24T07:21:53.070Z,95152.53
2023-03-24T07:27:00.717Z,95151.03
2023-03-24T07:32:08.824Z,95159.75
2023-03-24T07:37:20.936Z,95162.41
2023-03-24T07:42:28.613Z,95178.31
2023-03-24T07:47:37.744Z,95179.84
2023-03-24T07:52:51.155Z,95180.56
2023-03-24T07:57:59.477Z,95176.81
2023-03-24T08:03:09.795Z,95191.94
2023-03-24T08:08:20.228Z,95198.38
2023-03-24T08:13:28.217Z,95196.88
2023-03-24T08:18:36.032Z,95183.22
2023-03-24T08:23:46.246Z,95168.09
2023-03-24T08:28:53.866Z,95168.47
2023-03-24T08:34:01.498Z,95164.69
2023-03-24T08:39:12.878Z,95127.59
2023-03-24T08:44:21.327Z,95085.94
2023-03-24T08:49:28.920Z,95120.78
2023-03-24T08:54:39.384Z,95095.78
2023-03-24T08:59:49.485Z,95152.56
2023-03-24T09:04:58.628Z,95163.53
2023-03-24T09:10:11.815Z,95143.84
2023-03-24T09:15:19.605Z,95148.38
2023-03-24T09:20:27.448Z,95152.53
2023-03-24T09:25:37.739Z,95144.19
2023-03-24T09:30:45.873Z,95163.50
2023-03-24T09:35:59.258Z,95146.84
2023-03-24T09:41:20.210Z,95163.84
2023-03-24T09:46:34.697Z,95167.25
2023-03-24T09:51:47.139Z,95164.16
2023-03-24T09:56:58.737Z,95139.88
2023-03-24T10:02:13.441Z,95153.13
2023-03-24T10:07:30.572Z,95154.94
2023-03-24T10:12:43.070Z,95149.53
2023-03-24T10:18:00.335Z,95150.59
2023-03-24T10:23:23.113Z,95142.22
2023-03-24T10:28:41.848Z,95134.19
2023-03-24T10:33:49.859Z,95141.72
2023-03-24T10:39:06.436Z,95158.38
2023-03-24T10:44:27.304Z,95179.19
2023-03-24T10:49:34.912Z,95181.81
2023-03-24T10:54:57.621Z,95181.38
2023-03-24T11:00:15.905Z,95179.84
2023-03-24T11:05:30.073Z,95173.75
2023-03-24T11:10:38.082Z,95174.09
2023-03-24T11:15:56.910Z,95184.25
2023-03-24T11:21:07.173Z,95194.84
2023-03-24T11:26:18.476Z,95200.50
2023-03-24T11:31:32.167Z,95195.84
